createdAt,value
2019-02-21T00:00:24.191Z,101924.29
2019-02-21T00:02:51.822Z,101923.63
2019-02-21T00:05:21.184Z,101924.27
2019-02-21T00:07:50.695Z,101920.14
2019-02-21T00:10:21.063Z,101920.63
2019-02-21T00:12:51.008Z,101918.89
2019-02-21T00:15:20.928Z,101923.46
2019-02-21T00:17:50.296Z,101921.72
2019-02-21T00:20:20.019Z,101925.75
2019-02-21T00:22:49.671Z,101928.83
2019-02-21T00:25:19.084Z,101927.89
2019-02-21T00:27:48.726Z,101923.81
2019-02-21T00:30:18.390Z,101922.70
2019-02-21T00:32:47.843Z,101922.70
2019-02-21T00:35:17.253Z,101922.92
2019-02-21T00:37:46.764Z,101926.00
2019-02-21T00:40:16.128Z,101923.23
2019-02-21T00:42:45.719Z,101912.89
2019-02-21T00:45:15.141Z,101910.30
2019-02-21T00:47:44.783Z,101909.34
2019-02-21T00:50:15.222Z,101909.89
2019-02-21T00:52:44.807Z,101904.03
2019-02-21T00:55:15.097Z,101906.27
2019-02-21T00:57:44.738Z,101906.12
2019-02-21T01:00:15.389Z,101912.44
2019-02-21T01:02:45.196Z,101910.20
2019-02-21T01:05:14.863Z,101912.34
2019-02-21T01:07:44.209Z,101915.74
2019-02-21T01:10:15.152Z,101916.00
2019-02-21T01:12:44.814Z,101922.23
2019-02-21T01:15:15.193Z,101923.56
2019-02-21T01:17:45.959Z,101925.22
2019-02-21T01:20:15.321Z,101923.42
2019-02-21T01:22:44.826Z,101924.37
2019-02-21T01:25:15.379Z,101923.56
2019-02-21T01:27:44.923Z,101936.91
2019-02-21T01:30:15.467Z,101932.97
2019-02-21T01:32:44.966Z,101926.89
2019-02-21T01:35:15.337Z,101921.11
2019-02-21T01:37:44.943Z,101927.97
2019-02-21T01:40:15.216Z,101930.89
2019-02-21T01:42:44.852Z,101930.27
2019-02-21T01:45:15.261Z,101933.48
2019-02-21T01:47:44.849Z,101933.58
2019-02-21T01:50:15.614Z,101935.06
2019-02-21T01:52:45.207Z,101936.48
2019-02-21T01:55:15.548Z,101932.69
2019-02-21T01:57:44.930Z,101928.89
2019-02-21T02:00:15.571Z,101928.89
2019-02-21T02:02:45.092Z,101944.55
2019-02-21T02:05:15.455Z,101939.85
2019-02-21T02:07:45.074Z,101938.20
2019-02-21T02:10:15.280Z,101938.73
2019-02-21T02:12:45.103Z,101938.73
2019-02-21T02:15:15.320Z,101937.88
2019-02-21T02:17:44.962Z,101938.33
2019-02-21T02:20:15.499Z,101938.82
2019-02-21T02:22:45.232Z,101926.70
2019-02-21T02:25:15.354Z,101926.70
2019-02-21T02:27:45.057Z,101935.50
2019-02-21T02:30:15.664Z,101925.22
2019-02-21T02:32:45.381Z,101923.88
2019-02-21T02:35:15.411Z,101923.88
2019-02-21T02:37:44.992Z,101935.73
2019-02-21T02:40:15.337Z,101938.95
2019-02-21T02:42:44.977Z,101935.50
2019-02-21T02:45:15.361Z,101932.47
2019-02-21T02:47:44.703Z,101935.24
2019-02-21T02:50:15.519Z,101933.50
2019-02-21T02:52:45.265Z,101926.70
2019-02-21T02:55:15.464Z,101926.70
2019-02-21T02:57:45.359Z,101930.72
2019-02-21T03:00:15.881Z,101930.72
2019-02-21T03:02:45.310Z,101935.55
2019-02-21T03:05:15.519Z,101935.46
2019-02-21T03:07:45.144Z,101925.98
2019-02-21T03:10:15.480Z,101925.98
2019-02-21T03:12:45.101Z,101932.82
2019-02-21T03:15:15.419Z,101932.82
2019-02-21T03:17:45.079Z,101932.73
2019-02-21T03:20:15.847Z,101931.22
2019-02-21T03:22:45.198Z,101938.73
2019-02-21T03:25:15.559Z,101925.31
2019-02-21T03:27:45.230Z,101921.69
2019-02-21T03:30:15.593Z,101921.69
2019-02-21T03:32:45.255Z,101931.57
2019-02-21T03:35:15.582Z,101931.57
2019-02-21T03:37:45.169Z,101929.74
2019-02-21T03:40:15.587Z,101927.95
2019-02-21T03:42:45.262Z,101926.12
2019-02-21T03:45:15.639Z,101933.77
2019-02-21T03:47:45.285Z,101931.97
2019-02-21T03:50:15.900Z,101928.80
2019-02-21T03:52:45.266Z,101927.86
2019-02-21T03:55:15.811Z,101930.95
2019-02-21T03:57:45.460Z,101934.88
2019-02-21T04:00:15.636Z,101925.58
2019-02-21T04:02:45.584Z,101916.19
2019-02-21T04:05:15.653Z,101923.92
2019-02-21T04:07:45.299Z,101921.15
2019-02-21T04:10:15.683Z,101915.87
2019-02-21T04:12:45.474Z,101917.66
2019-02-21T04:15:15.557Z,101918.92
2019-02-21T04:17:45.218Z,101917.44
2019-02-21T04:20:14.566Z,101913.73
2019-02-21T04:22:44.219Z,101910.09
2019-02-21T04:25:13.606Z,101915.02
2019-02-21T04:27:43.214Z,101909.65
2019-02-21T04:30:12.556Z,101911.93
2019-02-21T04:32:42.625Z,101912.95
2019-02-21T04:35:12.267Z,101905.05
2019-02-21T04:37:41.873Z,101911.09
2019-02-21T04:40:11.293Z,101913.15
2019-02-21T04:42:40.885Z,101908.32
2019-02-21T04:45:10.529Z,101915.97
2019-02-21T04:47:39.889Z,101915.97
2019-02-21T04:50:09.356Z,101914.76
2019-02-21T04:52:38.721Z,101908.05
2019-02-21T04:55:08.338Z,101907.59
2019-02-21T04:57:37.699Z,101912.56
2019-02-21T05:00:10.599Z,101919.75
2019-02-21T05:02:39.965Z,101907.20
2019-02-21T05:05:09.495Z,101911.84
2019-02-21T05:07:38.869Z,101912.92
2019-02-21T05:10:08.417Z,101914.88
2019-02-21T05:12:37.779Z,101914.88
2019-02-21T05:15:07.526Z,101920.02
2019-02-21T05:17:36.994Z,101909.82
2019-02-21T05:20:06.929Z,101916.52
2019-02-21T05:22:36.408Z,101919.30
2019-02-21T05:25:06.117Z,101920.31
2019-02-21T05:27:35.776Z,101915.17
2019-02-21T05:30:07.849Z,101920.53
2019-02-21T05:32:42.170Z,101918.12
2019-02-21T05:35:13.180Z,101918.12
2019-02-21T05:37:44.183Z,101925.55
2019-02-21T05:40:20.734Z,101932.33
2019-02-21T05:42:52.312Z,101934.08
2019-02-21T05:45:24.558Z,101923.34
2019-02-21T05:48:04.709Z,101937.23
2019-02-21T05:50:51.750Z,101921.60
2019-02-21T05:53:38.607Z,101934.56
2019-02-21T05:56:09.601Z,101938.95
2019-02-21T05:58:40.590Z,101930.91
2019-02-21T06:01:23.668Z,101933.13
2019-02-21T06:04:03.554Z,101937.61
2019-02-21T06:06:43.772Z,101934.69
2019-02-21T06:09:14.767Z,101939.25
2019-02-21T06:12:02.080Z,101937.98
2019-02-21T06:14:33.378Z,101942.41
2019-02-21T06:17:07.021Z,101933.70
2019-02-21T06:19:41.230Z,101940.50
2019-02-21T06:22:12.305Z,101943.67
2019-02-21T06:24:44.136Z,101943.67
2019-02-21T06:27:15.412Z,101941.61
2019-02-21T06:29:49.779Z,101941.61
2019-02-21T06:32:19.133Z,101945.50
2019-02-21T06:34:48.868Z,101938.80
2019-02-21T06:37:18.522Z,101937.19
2019-02-21T06:39:47.886Z,101940.88
2019-02-21T06:42:18.865Z,101939.05
2019-02-21T06:44:48.235Z,101942.63
2019-02-21T06:47:17.874Z,101943.08
2019-02-21T06:49:47.248Z,101946.78
2019-02-21T06:52:16.893Z,101944.23
2019-02-21T06:54:46.802Z,101950.69
2019-02-21T06:57:18.098Z,101952.16
2019-02-21T06:59:47.667Z,101950.81
2019-02-21T07:02:18.267Z,101953.58
2019-02-21T07:04:47.815Z,101956.38
2019-02-21T07:07:17.189Z,101956.38
2019-02-21T07:09:46.727Z,101959.86
2019-02-21T07:12:16.063Z,101961.84
2019-02-21T07:14:45.971Z,101955.50
2019-02-21T07:17:16.083Z,101966.14
2019-02-21T07:19:45.734Z,101970.57
2019-02-21T07:22:17.925Z,101970.41
2019-02-21T07:24:47.790Z,101973.58
2019-02-21T07:27:17.406Z,101978.32
2019-02-21T07:29:46.829Z,101986.16
2019-02-21T07:32:16.184Z,101986.88
2019-02-21T07:34:46.801Z,101985.00
2019-02-21T07:37:18.913Z,101985.00
2019-02-21T07:39:50.774Z,101993.23
2019-02-21T07:42:20.728Z,101999.55
2019-02-21T07:44:50.118Z,101998.52
2019-02-21T07:47:19.516Z,101994.73
2019-02-21T07:49:50.424Z,101996.05
2019-02-21T07:52:20.125Z,101996.05
2019-02-21T07:55:01.032Z,102001.69
2019-02-21T07:57:21.859Z,102006.44
2019-02-21T07:59:51.238Z,102006.75
2019-02-21T08:02:21.135Z,102010.34
2019-02-21T08:04:50.523Z,102008.70
2019-02-21T08:07:20.167Z,102007.62
2019-02-21T08:09:49.907Z,102008.44
2019-02-21T08:12:19.498Z,102008.44
2019-02-21T08:14:48.878Z,102008.62
2019-02-21T08:17:18.463Z,102013.77
2019-02-21T08:19:48.004Z,102010.63
2019-02-21T08:22:17.355Z,102010.63
2019-02-21T08:24:47.170Z,101995.94
2019-02-21T08:27:16.807Z,101995.94
2019-02-21T08:29:46.167Z,102002.83
2019-02-21T08:32:17.872Z,102007.02
2019-02-21T08:34:49.113Z,102011.68
2019-02-21T08:37:19.830Z,102010.50
2019-02-21T08:39:49.195Z,102021.42
2019-02-21T08:42:18.854Z,102018.81
2019-02-21T08:44:48.204Z,102024.02
2019-02-21T08:47:18.131Z,102024.98
2019-02-21T08:49:47.742Z,102027.06
2019-02-21T08:52:17.295Z,102028.70
2019-02-21T08:54:47.255Z,102025.59
2019-02-21T08:57:19.582Z,102025.59
2019-02-21T08:59:48.202Z,102022.37
2019-02-21T09:02:18.196Z,102035.92
2019-02-21T09:04:47.569Z,102034.28
2019-02-21T09:07:17.108Z,102039.65
2019-02-21T09:09:46.475Z,102037.35
2019-02-21T09:12:16.337Z,102040.85
2019-02-21T09:14:45.998Z,102054.57
2019-02-21T09:17:16.406Z,102057.91
2019-02-21T09:19:46.103Z,102058.06
2019-02-21T09:22:16.319Z,102058.56
2019-02-21T09:24:45.974Z,102060.30
2019-02-21T09:27:16.323Z,102058.72
2019-02-21T09:29:45.987Z,102057.47
2019-02-21T09:32:16.468Z,102062.90
2019-02-21T09:34:46.097Z,102052.08
2019-02-21T09:37:16.643Z,102054.77
2019-02-21T09:39:46.089Z,102062.48
2019-02-21T09:42:16.421Z,102058.29
2019-02-21T09:44:46.344Z,102063.42
2019-02-21T09:47:15.984Z,102059.14
2019-02-21T09:49:45.818Z,102064.39
2019-02-21T09:52:16.595Z,102063.53
2019-02-21T09:54:47.480Z,102059.50
2019-02-21T09:57:18.745Z,102055.71
2019-02-21T09:59:48.120Z,102057.47
2019-02-21T10:02:18.067Z,102052.03
2019-02-21T10:04:47.414Z,102048.39
2019-02-21T10:07:17.038Z,102051.33
2019-02-21T10:09:46.645Z,102048.28
2019-02-21T10:12:16.846Z,102052.87
2019-02-21T10:14:46.188Z,102048.13
2019-02-21T10:17:16.502Z,102049.41
2019-02-21T10:19:45.877Z,102038.25
2019-02-21T10:22:16.471Z,102037.70
2019-02-21T10:24:46.103Z,102037.70
2019-02-21T10:27:16.829Z,102035.02
2019-02-21T10:29:46.185Z,102033.91
2019-02-21T10:32:16.557Z,102030.82
2019-02-21T10:34:46.140Z,102026.30
2019-02-21T10:37:16.512Z,102026.30
2019-02-21T10:39:47.887Z,102029.10
2019-02-21T10:42:17.856Z,102037.93
2019-02-21T10:44:50.179Z,102043.77
2019-02-21T10:47:20.079Z,102043.77
2019-02-21T10:49:49.437Z,102044.00
2019-02-21T10:52:19.128Z,102037.97
2019-02-21T10:54:48.513Z,102034.63
2019-02-21T10:57:18.178Z,102026.99
2019-02-21T10:59:49.029Z,102034.33
2019-02-21T11:02:18.604Z,102027.92
2019-02-21T11:04:54.707Z,102023.39
2019-02-21T11:07:19.613Z,102023.39
2019-02-21T11:09:49.296Z,102028.66
2019-02-21T11:12:18.918Z,102024.75
2019-02-21T11:14:48.413Z,102024.20
2019-02-21T11:17:17.812Z,102038.04
2019-02-21T11:19:47.407Z,102034.81
2019-02-21T11:22:17.043Z,102031.59
2019-02-21T11:24:48.040Z,102028.17
2019-02-21T11:27:17.706Z,102019.91
2019-02-21T11:29:47.369Z,102018.30
2019-02-21T11:32:16.755Z,102010.28
2019-02-21T11:34:46.465Z,102002.97
2019-02-21T11:37:15.867Z,102002.48
2019-02-21T11:39:45.798Z,102002.89
2019-02-21T11:42:16.392Z,102002.95
2019-02-21T11:44:45.752Z,101997.17
2019-02-21T11:47:18.095Z,102004.72
2019-02-21T11:49:47.456Z,101996.63
2019-02-21T11:52:17.749Z,101998.95
2019-02-21T11:54:47.462Z,101999.67
2019-02-21T11:57:17.211Z,101994.53
2019-02-21T11:59:46.597Z,101999.85
2019-02-21T12:02:16.891Z,101995.78
2019-02-21T12:04:46.470Z,102001.30
2019-02-21T12:07:16.693Z,102003.22
2019-02-21T12:09:46.057Z,102004.98
2019-02-21T12:12:17.343Z,102005.92
2019-02-21T12:14:46.695Z,102005.92
2019-02-21T12:17:17.057Z,102009.77
2019-02-21T12:19:46.552Z,102009.77
2019-02-21T12:22:16.795Z,102002.46
2019-02-21T12:24:46.730Z,102017.78
2019-02-21T12:27:17.038Z,102020.98
2019-02-21T12:29:46.816Z,102016.93
2019-02-21T12:32:16.844Z,102030.11
2019-02-21T12:34:46.522Z,102020.48
2019-02-21T12:37:16.870Z,102030.50
2019-02-21T12:39:46.505Z,102029.04
2019-02-21T12:42:17.110Z,102016.60
2019-02-21T12:44:47.902Z,102026.72
2019-02-21T12:47:17.877Z,102031.83
2019-02-21T12:49:47.509Z,102024.59
2019-02-21T12:52:18.252Z,102027.78
2019-02-21T12:54:47.863Z,102025.47
2019-02-21T12:57:17.532Z,102024.30
2019-02-21T12:59:46.915Z,102017.84
2019-02-21T13:02:16.584Z,102019.30
2019-02-21T13:04:47.937Z,102014.69
2019-02-21T13:07:17.647Z,101987.70
2019-02-21T13:09:47.035Z,102005.64
2019-02-21T13:12:16.920Z,102007.09
2019-02-21T13:14:46.603Z,102009.87
2019-02-21T13:17:16.950Z,102003.89
2019-02-21T13:19:46.584Z,102006.23
2019-02-21T13:22:16.956Z,102008.05
2019-02-21T13:24:46.686Z,102009.31
2019-02-21T13:27:16.918Z,102005.72
2019-02-21T13:29:46.575Z,102008.63
2019-02-21T13:32:16.935Z,102010.27
2019-02-21T13:34:46.615Z,102000.99
2019-02-21T13:37:27.940Z,102006.89
2019-02-21T13:39:48.285Z,102014.22
2019-02-21T13:42:18.105Z,102014.22
2019-02-21T13:44:47.906Z,102010.66
2019-02-21T13:47:17.576Z,102005.42
2019-02-21T13:49:46.940Z,102010.94
2019-02-21T13:52:16.591Z,102011.53
2019-02-21T13:54:46.994Z,102013.34
2019-02-21T13:57:17.617Z,102011.31
2019-02-21T13:59:48.817Z,102012.17
2019-02-21T14:02:18.162Z,102013.34
2019-02-21T14:04:47.647Z,102015.27
2019-02-21T14:07:17.139Z,102011.81
2019-02-21T14:09:46.877Z,102025.31
2019-02-21T14:12:17.047Z,102028.00
2019-02-21T14:14:46.759Z,102030.42
2019-02-21T14:17:17.177Z,102037.85
2019-02-21T14:19:47.171Z,102042.74
2019-02-21T14:22:16.806Z,102038.02
2019-02-21T14:24:46.213Z,102051.02
2019-02-21T14:27:17.276Z,102052.35
2019-02-21T14:29:46.664Z,102055.43
2019-02-21T14:32:16.899Z,102057.79
2019-02-21T14:34:46.515Z,102051.30
2019-02-21T14:37:17.226Z,102048.52
2019-02-21T14:39:46.780Z,102054.38
2019-02-21T14:42:16.143Z,102057.46
2019-02-21T14:44:46.053Z,102047.63
2019-02-21T14:47:17.630Z,102054.47
2019-02-21T14:49:46.994Z,102060.92
2019-02-21T14:52:17.227Z,102069.48
2019-02-21T14:54:46.628Z,102069.28
2019-02-21T14:57:17.434Z,102069.72
2019-02-21T14:59:46.787Z,102068.73
2019-02-21T15:02:17.163Z,102068.05
2019-02-21T15:04:46.812Z,102073.77
2019-02-21T15:07:17.290Z,102068.40
2019-02-21T15:09:47.904Z,102071.41
2019-02-21T15:12:17.353Z,102071.41
2019-02-21T15:14:46.788Z,102084.02
2019-02-21T15:17:18.555Z,102082.93
2019-02-21T15:19:48.107Z,102082.23
2019-02-21T15:22:17.485Z,102073.52
2019-02-21T15:24:47.821Z,102069.02
2019-02-21T15:27:18.031Z,102069.88
2019-02-21T15:29:47.392Z,102063.23
2019-02-21T15:32:17.189Z,102065.62
2019-02-21T15:34:47.346Z,102066.19
2019-02-21T15:37:18.094Z,102065.62
2019-02-21T15:39:47.496Z,102063.53
2019-02-21T15:42:17.294Z,102076.45
2019-02-21T15:44:46.928Z,102075.86
2019-02-21T15:47:17.241Z,102075.61
2019-02-21T15:49:46.895Z,102070.10
2019-02-21T15:52:22.271Z,102070.10
2019-02-21T15:54:48.324Z,102067.70
2019-02-21T15:57:18.235Z,102071.19
2019-02-21T15:59:47.594Z,102072.83
2019-02-21T16:02:18.682Z,102062.31
2019-02-21T16:04:48.042Z,102072.23
2019-02-21T16:07:17.547Z,102067.25
2019-02-21T16:09:46.911Z,102063.01
2019-02-21T16:12:17.838Z,102067.28
2019-02-21T16:14:47.894Z,102066.23
2019-02-21T16:17:17.352Z,102064.33
2019-02-21T16:19:46.977Z,102070.57
2019-02-21T16:22:17.311Z,102070.57
2019-02-21T16:24:48.127Z,102077.15
2019-02-21T16:27:19.010Z,102081.59
2019-02-21T16:29:48.398Z,102075.64
2019-02-21T16:32:18.043Z,102079.98
2019-02-21T16:34:47.664Z,102085.17
2019-02-21T16:37:17.500Z,102073.83
2019-02-21T16:39:47.413Z,102071.63
2019-02-21T16:42:17.278Z,102059.47
2019-02-21T16:44:46.897Z,102059.47
2019-02-21T16:47:16.312Z,102069.26
2019-02-21T16:49:46.976Z,102074.35
2019-02-21T16:52:18.079Z,102073.01
2019-02-21T16:54:47.441Z,102082.73
2019-02-21T16:57:17.889Z,102085.92
2019-02-21T16:59:47.297Z,102098.84
2019-02-21T17:02:17.479Z,102096.05
2019-02-21T17:04:47.121Z,102109.23
2019-02-21T17:07:20.124Z,102106.04
2019-02-21T17:09:49.068Z,102114.52
2019-02-21T17:12:18.419Z,102116.82
2019-02-21T17:14:48.601Z,102128.09
2019-02-21T17:17:18.256Z,102135.88
2019-02-21T17:19:47.872Z,102135.09
2019-02-21T17:22:17.803Z,102152.31
2019-02-21T17:24:47.188Z,102155.46
2019-02-21T17:27:17.533Z,102152.06
2019-02-21T17:29:47.213Z,102158.66
2019-02-21T17:32:17.530Z,102159.66
2019-02-21T17:34:47.238Z,102163.09
2019-02-21T17:37:25.011Z,102159.52
2019-02-21T17:39:50.759Z,102170.08
2019-02-21T17:42:20.702Z,102175.41
2019-02-21T17:44:51.181Z,102176.60
2019-02-21T17:47:20.829Z,102185.87
2019-02-21T17:49:50.336Z,102182.87
2019-02-21T17:52:19.685Z,102181.77
2019-02-21T17:54:49.209Z,102182.96
2019-02-21T17:57:18.570Z,102182.96
2019-02-21T17:59:48.615Z,102188.34
2019-02-21T18:02:18.286Z,102196.02
2019-02-21T18:04:47.932Z,102200.55
2019-02-21T18:07:17.733Z,102198.41
2019-02-21T18:09:47.217Z,102207.43
2019-02-21T18:12:17.584Z,102199.91
2019-02-21T18:14:47.307Z,102205.87
2019-02-21T18:17:17.742Z,102213.55
2019-02-21T18:19:47.385Z,102212.66
2019-02-21T18:22:18.619Z,102212.66
2019-02-21T18:24:48.313Z,102207.50
2019-02-21T18:27:17.683Z,102207.50
2019-02-21T18:29:47.245Z,102217.33
2019-02-21T18:32:17.693Z,102229.05
2019-02-21T18:34:49.472Z,102221.45
2019-02-21T18:37:18.706Z,102218.86
2019-02-21T18:39:51.505Z,102218.86
2019-02-21T18:42:22.469Z,102226.34
2019-02-21T18:44:52.099Z,102219.22
2019-02-21T18:47:21.597Z,102215.12
2019-02-21T18:49:51.204Z,102215.12
2019-02-21T18:52:20.700Z,102220.25
2019-02-21T18:54:50.376Z,102223.13
2019-02-21T18:57:19.778Z,102223.13
2019-02-21T18:59:49.367Z,102230.56
2019-02-21T19:02:19.858Z,102223.89
2019-02-21T19:04:49.496Z,102221.59
2019-02-21T19:07:18.895Z,102221.59
2019-02-21T19:09:48.386Z,102228.09
2019-02-21T19:12:17.826Z,102228.09
2019-02-21T19:14:47.701Z,102232.45
2019-02-21T19:17:17.918Z,102232.45
2019-02-21T19:19:47.686Z,102229.61
2019-02-21T19:22:17.988Z,102229.61
2019-02-21T19:24:47.876Z,102233.08
2019-02-21T19:27:18.196Z,102233.08
2019-02-21T19:29:47.566Z,102240.30
2019-02-21T19:32:17.935Z,102242.09
2019-02-21T19:34:47.658Z,102235.06
2019-02-21T19:37:18.193Z,102242.02
2019-02-21T19:39:47.800Z,102246.37
2019-02-21T19:42:18.163Z,102247.72
2019-02-21T19:44:47.550Z,102264.27
2019-02-21T19:47:18.028Z,102267.84
2019-02-21T19:49:47.681Z,102262.52
2019-02-21T19:52:17.994Z,102262.52
2019-02-21T19:54:47.785Z,102258.48
2019-02-21T19:57:17.965Z,102258.48
2019-02-21T19:59:47.558Z,102267.22
2019-02-21T20:02:17.948Z,102267.22
2019-02-21T20:04:47.608Z,102278.16
2019-02-21T20:07:17.003Z,102287.48
2019-02-21T20:09:46.688Z,102284.71
2019-02-21T20:12:16.081Z,102284.71
2019-02-21T20:14:45.548Z,102288.44
2019-02-21T20:17:14.962Z,102288.44
2019-02-21T20:19:44.330Z,102299.42
2019-02-21T20:22:13.878Z,102299.12
2019-02-21T20:24:43.526Z,102295.31
2019-02-21T20:27:12.883Z,102309.66
2019-02-21T20:29:42.487Z,102315.84
2019-02-21T20:32:11.982Z,102323.34
2019-02-21T20:34:41.346Z,102314.49
2019-02-21T20:37:12.234Z,102320.82
2019-02-21T20:39:41.843Z,102320.25
2019-02-21T20:42:11.219Z,102320.25
2019-02-21T20:44:40.781Z,102312.89
2019-02-21T20:47:10.238Z,102312.89
2019-02-21T20:49:39.945Z,102332.13
2019-02-21T20:52:09.307Z,102326.75
2019-02-21T20:54:40.139Z,102329.90
2019-02-21T20:57:10.358Z,102335.19
2019-02-21T20:59:39.795Z,102324.28
2019-02-21T21:02:09.219Z,102324.28
2019-02-21T21:04:38.881Z,102337.16
2019-02-21T21:07:08.298Z,102332.90
2019-02-21T21:09:37.883Z,102324.97
2019-02-21T21:12:07.258Z,102324.97
2019-02-21T21:14:36.815Z,102333.58
2019-02-21T21:17:06.225Z,102329.17
2019-02-21T21:19:36.584Z,102341.60
2019-02-21T21:22:06.109Z,102345.69
2019-02-21T21:24:36.013Z,102348.87
2019-02-21T21:27:05.627Z,102360.44
2019-02-21T21:29:34.974Z,102357.88
2019-02-21T21:32:04.403Z,102373.63
2019-02-21T21:34:34.074Z,102371.25
2019-02-21T21:37:03.458Z,102380.00
2019-02-21T21:39:33.096Z,102380.00
2019-02-21T21:42:02.723Z,102382.15
2019-02-21T21:44:32.491Z,102388.88
2019-02-21T21:47:02.013Z,102380.00
2019-02-21T21:49:31.609Z,102380.00
2019-02-21T21:52:01.015Z,102395.52
2019-02-21T21:54:30.912Z,102392.51
2019-02-21T21:57:00.294Z,102391.70
2019-02-21T21:59:29.649Z,102395.10
2019-02-21T22:01:59.015Z,102403.53
2019-02-21T22:04:28.384Z,102399.49
2019-02-21T22:06:57.978Z,102395.95
2019-02-21T22:09:27.902Z,102398.77
2019-02-21T22:11:57.281Z,102400.65
2019-02-21T22:14:26.947Z,102411.91
2019-02-21T22:16:56.332Z,102415.21
2019-02-21T22:19:26.502Z,102414.00
2019-02-21T22:21:56.262Z,102416.50
2019-02-21T22:24:26.364Z,102416.50
2019-02-21T22:26:56.062Z,102428.88
2019-02-21T22:29:25.477Z,102431.03
2019-02-21T22:31:55.119Z,102427.74
2019-02-21T22:34:24.709Z,102427.74
2019-02-21T22:36:54.265Z,102431.66
2019-02-21T22:39:24.213Z,102431.66
2019-02-21T22:41:53.574Z,102435.21
2019-02-21T22:44:23.424Z,102442.47
2019-02-21T22:46:53.355Z,102438.52
2019-02-21T22:49:23.007Z,102437.06
2019-02-21T22:51:52.639Z,102437.06
2019-02-21T22:54:22.317Z,102441.95
2019-02-21T22:56:51.697Z,102449.56
2019-02-21T22:59:21.349Z,102454.41
2019-02-21T23:01:50.800Z,102465.62
2019-02-21T23:04:23.705Z,102458.45
2019-02-21T23:06:56.588Z,102458.57
2019-02-21T23:09:28.214Z,102456.55
2019-02-21T23:11:57.980Z,102456.13
2019-02-21T23:14:28.816Z,102457.93
2019-02-21T23:16:58.253Z,102451.58
2019-02-21T23:19:27.696Z,102451.58
2019-02-21T23:21:57.268Z,102453.98
2019-02-21T23:24:26.887Z,102453.98
2019-02-21T23:26:56.260Z,102460.70
2019-02-21T23:29:25.870Z,102468.44
2019-02-21T23:31:55.499Z,102458.70
2019-02-21T23:34:29.463Z,102458.70
2019-02-21T23:36:59.124Z,102461.52
2019-02-21T23:39:38.030Z,102466.48
2019-02-21T23:41:59.594Z,102462.50
2019-02-21T23:44:30.461Z,102459.48
2019-02-21T23:47:00.117Z,102460.37
2019-02-21T23:49:29.466Z,102458.55
2019-02-21T23:51:59.152Z,102466.28
2019-02-21T23:54:28.488Z,102467.14
2019-02-21T23:56:57.866Z,102466.61
2019-02-21T23:59:27.534Z,102481.39
